Aeroporto :
LOGIN :

Iscrizione | Disclaimer

   EN    FR    IT 

 










Sommario :    VFR   VFR Marginale   IFR   IFR Intensivo   IFR Molto Intensivo
Visibilità : 
Base nubi : 
>= 8 km
>= 3000ft
5 / 8 km
1000 / 3000 ft
1500m / 5 km
500 / 1000 ft
800 / 1500m
200 / 500 ft
< 800m
< 200 ft
Simboli :   Temporali  Nebbia  Neve Forte  Precipitazioni Forti  Vento > 20 kt
SIGMETs :   Varie  Temporali  Ghiacco  Turbolenza  Onda orograficha  Ceneri Vulcaniche






- Altitudine del aeroporto : 290 ft
- Codice IATA : LAI


LFRO - Lannion

ULTIMO METAR :
  • 150200Z AUTO 00000KT 6000 -RADZ FEW041/// BKN047/// BKN056/// ///CB 02/02 Q1001

METARs OBSOLETI :
  • 150130Z AUTO 00000KT 5000 BR FEW046/// BKN088/// BKN150/// ///TCU 01/01 Q1001
  • 150100Z AUTO 00000KT 1100 1000 R29/1600U BR FEW001/// BKN180/// OVC210/// ///TCU 01/00 Q1000
  • 150030Z AUTO 00000KT 0550 0500 R29/0650D FG FEW036/// OVC210/// ///TCU 01/01 Q1000
  • 150000Z AUTO 01002KT 3500 BR ///TCU 01/01 Q1001
  • 142330Z AUTO 31002KT 1300 R29/P2000U BCFG VV/// 01/00 Q1000

Previsioni scadute.



MetMap, La meteo Aeronautica in un colpo d'occhio ! - Copyright ORBIFLY Dicembre 2007 - Disclaimer

ORBIFLY MET'MAP TEAM :

Programmazione e sviluppo : Alexandra Zaïnal
Concezione e sviluppo : Baudouin d'Aumeries
Co-Programmazione e sviluppo : Marc-Olivier Méhu
Supporto tecnico e logistico : Manuel Goepfert
Aiuto per la traduzione : Arnaldo La Scala

Contatto : metmap@orbifly.com




FONTI E CREDITI :

   NOAA